createdAt,value
2023-04-11T00:00:26.750Z,21.90
2023-04-11T00:03:00.367Z,23.60
2023-04-11T00:05:31.335Z,24.90
2023-04-11T00:07:59.477Z,24.90
2023-04-11T00:10:27.587Z,22.70
2023-04-11T00:12:56.894Z,22.40
2023-04-11T00:15:32.759Z,20.70
2023-04-11T00:18:04.178Z,23.10
2023-04-11T00:20:32.408Z,22.00
2023-04-11T00:23:00.280Z,19.30
2023-04-11T00:25:30.012Z,21.70
2023-04-11T00:27:58.295Z,20.80
2023-04-11T00:30:27.415Z,22.80
2023-04-11T00:32:55.788Z,26.20
2023-04-11T00:35:24.455Z,18.60
2023-04-11T00:37:56.166Z,23.50
2023-04-11T00:40:24.466Z,22.80
2023-04-11T00:43:12.227Z,21.10
2023-04-11T00:45:40.668Z,21.40
2023-04-11T00:48:09.081Z,23.50
2023-04-11T00:50:42.413Z,23.90
2023-04-11T00:53:11.133Z,21.80
2023-04-11T00:55:39.858Z,23.30
2023-04-11T00:58:08.783Z,21.20
2023-04-11T01:00:38.798Z,24.30
2023-04-11T01:03:08.516Z,20.90
2023-04-11T01:05:37.478Z,23.30
2023-04-11T01:08:05.853Z,21.50
2023-04-11T01:10:35.643Z,37.00
2023-04-11T01:13:03.707Z,22.80
2023-04-11T01:15:40.140Z,23.80
2023-04-11T01:18:09.286Z,25.50
2023-04-11T01:20:38.754Z,27.50
2023-04-11T01:23:07.002Z,27.10
2023-04-11T01:25:34.882Z,26.20
2023-04-11T01:28:03.642Z,24.30
2023-04-11T01:30:32.314Z,22.80
2023-04-11T01:33:01.344Z,19.00
2023-04-11T01:35:30.463Z,23.50
2023-04-11T01:37:58.695Z,22.10
2023-04-11T01:40:26.677Z,20.70
2023-04-11T01:42:54.637Z,23.20
2023-04-11T01:45:22.681Z,23.60
2023-04-11T01:47:52.300Z,21.40
2023-04-11T01:50:21.272Z,21.30
2023-04-11T01:52:49.475Z,19.50
2023-04-11T01:55:19.073Z,22.10
2023-04-11T01:57:47.106Z,24.60
2023-04-11T02:00:15.584Z,23.90
2023-04-11T02:02:46.030Z,23.80
2023-04-11T02:05:14.315Z,22.90
2023-04-11T02:07:50.717Z,31.70
2023-04-11T02:10:20.123Z,22.70
2023-04-11T02:12:49.325Z,23.50
2023-04-11T02:15:19.153Z,23.70
2023-04-11T02:17:54.662Z,22.10
2023-04-11T02:20:23.257Z,22.10
2023-04-11T02:22:59.007Z,27.40
2023-04-11T02:25:26.913Z,22.30
2023-04-11T02:27:54.891Z,27.00
2023-04-11T02:30:30.683Z,21.60
2023-04-11T02:32:59.132Z,22.80
2023-04-11T02:35:27.043Z,23.20
2023-04-11T02:37:55.457Z,22.00
2023-04-11T02:40:24.575Z,23.10
2023-04-11T02:42:52.628Z,24.60
2023-04-11T02:45:20.801Z,23.70
2023-04-11T02:47:49.600Z,26.40
2023-04-11T02:50:23.058Z,23.10
2023-04-11T02:52:52.737Z,24.90
2023-04-11T02:55:24.274Z,29.70
2023-04-11T02:57:52.970Z,23.20
2023-04-11T03:00:22.188Z,23.20
2023-04-11T03:02:59.223Z,24.60
2023-04-11T03:05:28.062Z,22.90
2023-04-11T03:07:57.893Z,27.20
2023-04-11T03:10:29.446Z,28.80
2023-04-11T03:12:58.915Z,23.90
2023-04-11T03:15:27.991Z,24.90
2023-04-11T03:17:56.515Z,24.80
2023-04-11T03:20:24.942Z,25.50
2023-04-11T03:22:54.168Z,24.20
2023-04-11T03:25:22.564Z,22.20
2023-04-11T03:27:51.339Z,23.40
2023-04-11T03:30:22.953Z,22.00
2023-04-11T03:32:53.177Z,22.80
2023-04-11T03:35:21.816Z,29.00
2023-04-11T03:37:51.255Z,26.10
2023-04-11T03:40:19.562Z,22.60
2023-04-11T03:42:52.071Z,21.80
2023-04-11T03:45:23.715Z,22.30
2023-04-11T03:47:53.066Z,22.20
2023-04-11T03:50:23.200Z,23.30
2023-04-11T03:52:53.339Z,22.30
2023-04-11T03:55:21.718Z,21.80
2023-04-11T03:57:50.398Z,24.90
2023-04-11T04:00:20.169Z,23.30
2023-04-11T04:03:07.354Z,23.30
2023-04-11T04:05:37.026Z,23.60
2023-04-11T04:08:06.444Z,19.20
2023-04-11T04:10:47.264Z,22.50
2023-04-11T04:13:15.325Z,19.50
2023-04-11T04:16:03.455Z,22.50
2023-04-11T04:18:33.102Z,19.40
2023-04-11T04:21:02.465Z,20.80
2023-04-11T04:23:32.793Z,21.30
2023-04-11T04:26:33.928Z,20.20
2023-04-11T04:29:12.722Z,21.20
2023-04-11T04:31:53.063Z,20.00
2023-04-11T04:34:29.171Z,21.80
2023-04-11T04:36:59.764Z,19.90
2023-04-11T04:39:38.199Z,24.10
2023-04-11T04:42:11.220Z,25.80
2023-04-11T04:45:00.555Z,26.10
2023-04-11T04:47:33.581Z,22.60
2023-04-11T04:50:01.635Z,21.40
2023-04-11T04:52:30.738Z,26.40
2023-04-11T04:55:00.228Z,28.60
2023-04-11T04:57:32.210Z,19.00
2023-04-11T05:00:12.179Z,23.90
2023-04-11T05:02:43.959Z,24.60
2023-04-11T05:05:14.133Z,26.00
2023-04-11T05:07:42.686Z,28.00
2023-04-11T05:10:12.374Z,22.50
2023-04-11T05:12:41.268Z,21.60
2023-04-11T05:15:11.769Z,22.70
2023-04-11T05:17:44.839Z,20.90
2023-04-11T05:20:15.617Z,25.70
2023-04-11T05:22:48.552Z,25.80
2023-04-11T05:25:18.324Z,25.50
2023-04-11T05:27:47.847Z,26.20
2023-04-11T05:30:16.827Z,24.30
2023-04-11T05:32:50.873Z,23.00
2023-04-11T05:35:19.645Z,22.50
2023-04-11T05:37:51.536Z,26.80
2023-04-11T05:40:19.672Z,26.40
2023-04-11T05:42:49.538Z,21.90
2023-04-11T05:45:18.490Z,19.80
2023-04-11T05:47:46.928Z,23.20
2023-04-11T05:50:14.966Z,22.60
2023-04-11T05:52:44.770Z,26.70
2023-04-11T05:55:14.128Z,23.10
2023-04-11T05:57:42.351Z,26.20
2023-04-11T06:00:16.936Z,23.90
2023-04-11T06:02:48.011Z,21.80
2023-04-11T06:05:18.103Z,18.10
2023-04-11T06:07:47.568Z,23.30
2023-04-11T06:10:15.476Z,19.60
2023-04-11T06:12:50.967Z,22.10
2023-04-11T06:15:19.300Z,23.10
2023-04-11T06:17:47.441Z,21.50
2023-04-11T06:20:17.593Z,22.70
2023-04-11T06:22:46.973Z,20.00
2023-04-11T06:25:15.783Z,22.80
2023-04-11T06:27:45.428Z,22.80
2023-04-11T06:30:13.824Z,19.80
2023-04-11T06:32:42.736Z,22.80
2023-04-11T06:35:11.438Z,28.00
2023-04-11T06:37:42.311Z,17.80
2023-04-11T06:40:13.446Z,19.00
2023-04-11T06:42:43.480Z,20.50
2023-04-11T06:45:12.168Z,19.60
2023-04-11T06:47:40.411Z,19.30
2023-04-11T06:50:08.652Z,20.70
2023-04-11T06:52:38.213Z,17.90
2023-04-11T06:55:07.296Z,21.60
2023-04-11T06:57:35.426Z,16.70
2023-04-11T07:00:07.123Z,22.40
2023-04-11T07:02:36.520Z,17.70
2023-04-11T07:05:06.264Z,23.80
2023-04-11T07:07:35.327Z,12.30
2023-04-11T07:10:04.795Z,15.10
2023-04-11T07:12:32.873Z,18.20
2023-04-11T07:15:05.146Z,11.60
2023-04-11T07:17:34.108Z,18.20
2023-04-11T07:20:02.113Z,11.10
2023-04-11T07:22:30.454Z,11.50
2023-04-11T07:24:58.555Z,9.40
2023-04-11T07:27:26.583Z,17.80
2023-04-11T07:29:56.492Z,16.10
2023-04-11T07:32:24.691Z,13.10
2023-04-11T07:34:54.113Z,8.50
2023-04-11T07:37:22.743Z,12.10
2023-04-11T07:39:52.092Z,11.70
2023-04-11T07:42:20.409Z,11.50
2023-04-11T07:44:48.843Z,7.80
2023-04-11T07:47:21.770Z,10.80
2023-04-11T07:49:50.260Z,13.20
2023-04-11T07:52:18.238Z,8.90
2023-04-11T07:54:47.967Z,9.50
2023-04-11T07:57:17.060Z,14.60
2023-04-11T07:59:48.649Z,14.70
2023-04-11T08:02:16.677Z,13.70
2023-04-11T08:04:45.107Z,8.90
2023-04-11T08:07:18.173Z,13.30
2023-04-11T08:09:46.726Z,6.70
2023-04-11T08:12:16.700Z,8.70
2023-04-11T08:14:46.721Z,8.50
2023-04-11T08:17:27.129Z,9.50
2023-04-11T08:19:57.858Z,10.10
2023-04-11T08:22:26.760Z,9.30
2023-04-11T08:24:54.666Z,13.20
2023-04-11T08:27:22.573Z,9.10
2023-04-11T08:29:51.188Z,9.70
2023-04-11T08:32:19.459Z,15.10
2023-04-11T08:34:47.519Z,21.60
2023-04-11T08:37:15.785Z,8.20
2023-04-11T08:39:43.948Z,11.80
2023-04-11T08:42:23.189Z,11.00
2023-04-11T08:44:59.496Z,13.40
2023-04-11T08:47:28.408Z,11.00
2023-04-11T08:49:56.704Z,9.30
2023-04-11T08:52:24.606Z,9.40
2023-04-11T08:54:55.197Z,14.30
2023-04-11T08:57:31.706Z,14.50
2023-04-11T09:02:36.258Z,9.40
2023-04-11T09:05:05.712Z,9.80
2023-04-11T09:07:48.490Z,8.80
2023-04-11T09:10:20.339Z,10.50
2023-04-11T09:12:52.189Z,16.90
2023-04-11T09:15:27.906Z,9.30
2023-04-11T09:18:00.354Z,14.80
2023-04-11T09:20:38.081Z,9.50
2023-04-11T09:23:06.145Z,10.00
2023-04-11T09:25:43.440Z,8.00
2023-04-11T09:28:12.704Z,7.00
2023-04-11T09:30:52.375Z,11.40
2023-04-11T09:33:25.485Z,8.30
2023-04-11T09:35:56.061Z,7.00
2023-04-11T09:38:34.699Z,11.60
2023-04-11T09:41:03.692Z,9.00
2023-04-11T09:43:55.914Z,8.60
2023-04-11T09:46:25.040Z,6.90
2023-04-11T09:48:54.742Z,14.40
2023-04-11T09:53:55.193Z,11.30
2023-04-11T09:56:24.069Z,10.50
2023-04-11T09:58:52.342Z,12.30
2023-04-11T10:01:20.611Z,10.30
2023-04-11T10:03:51.184Z,10.90
2023-04-11T10:06:31.879Z,14.50
2023-04-11T10:09:11.370Z,11.40
2023-04-11T10:11:44.278Z,7.60
2023-04-11T10:14:40.681Z,11.10
2023-04-11T10:17:22.895Z,7.30
2023-04-11T10:19:56.954Z,11.20
2023-04-11T10:22:43.923Z,8.40
2023-04-11T10:25:19.904Z,9.30
2023-04-11T10:27:49.362Z,14.10
2023-04-11T10:30:17.229Z,8.80
2023-04-11T10:33:12.566Z,14.50
2023-04-11T10:35:58.005Z,9.70
2023-04-11T10:38:41.710Z,6.60
2023-04-11T10:41:29.050Z,9.10
2023-04-11T10:44:16.451Z,9.90
2023-04-11T10:46:46.525Z,10.10
2023-04-11T10:49:35.393Z,8.80
2023-04-11T10:52:25.593Z,9.30
2023-04-11T10:54:54.070Z,11.90
2023-04-11T10:57:27.318Z,8.90
2023-04-11T10:59:58.715Z,11.10
2023-04-11T11:02:35.706Z,12.70
2023-04-11T11:05:15.200Z,9.00
2023-04-11T11:07:46.477Z,12.50
2023-04-11T11:10:14.454Z,12.60
2023-04-11T11:15:51.286Z,9.90
2023-04-11T11:18:19.282Z,9.30
2023-04-11T11:20:47.433Z,8.30
2023-04-11T11:23:16.127Z,10.90
2023-04-11T11:25:52.653Z,14.90
2023-04-11T11:28:20.577Z,11.00
2023-04-11T11:30:54.987Z,8.60
2023-04-11T11:33:26.708Z,10.00
2023-04-11T11:35:58.910Z,11.40
2023-04-11T11:38:28.527Z,8.70
2023-04-11T11:40:57.419Z,4.50
2023-04-11T11:43:27.602Z,10.30
2023-04-11T11:46:09.372Z,12.70
2023-04-11T11:48:38.302Z,7.40
2023-04-11T11:51:07.177Z,6.30
2023-04-11T11:53:35.953Z,8.30
2023-04-11T11:56:13.992Z,7.20
2023-04-11T11:58:44.474Z,15.90
2023-04-11T12:03:51.579Z,7.90
2023-04-11T12:06:20.856Z,14.50
2023-04-11T12:08:54.017Z,11.10
2023-04-11T12:11:22.729Z,6.60
2023-04-11T12:13:54.161Z,7.60
2023-04-11T12:16:23.344Z,10.20
2023-04-11T12:19:01.120Z,10.20
2023-04-11T12:21:30.015Z,8.10
2023-04-11T12:23:58.180Z,8.30
2023-04-11T12:26:27.971Z,11.60
2023-04-11T12:28:56.102Z,13.10
2023-04-11T12:31:25.768Z,8.90
2023-04-11T12:33:55.439Z,7.50
2023-04-11T12:36:23.719Z,9.90
2023-04-11T12:38:53.651Z,7.60
2023-04-11T12:41:32.273Z,12.30
2023-04-11T12:44:02.562Z,9.50
2023-04-11T12:46:30.887Z,10.40
2023-04-11T12:48:58.856Z,7.10
2023-04-11T12:51:27.712Z,8.40
2023-04-11T12:53:55.732Z,8.00
2023-04-11T12:56:23.757Z,9.10
2023-04-11T12:58:51.729Z,8.90
2023-04-11T13:01:19.862Z,7.20
2023-04-11T13:03:48.759Z,8.60
2023-04-11T13:06:17.093Z,8.20
2023-04-11T13:08:45.363Z,13.50
2023-04-11T13:11:13.188Z,12.20
2023-04-11T13:13:41.725Z,7.50
2023-04-11T13:16:11.962Z,13.20
2023-04-11T13:18:39.848Z,10.40
2023-04-11T13:21:08.788Z,11.50
2023-04-11T13:23:37.192Z,10.40
2023-04-11T13:26:07.796Z,10.50
2023-04-11T13:28:38.968Z,15.90
2023-04-11T13:31:10.817Z,13.50
2023-04-11T13:33:45.036Z,10.10
2023-04-11T13:36:12.953Z,7.40
2023-04-11T13:38:42.545Z,10.40
2023-04-11T13:41:14.931Z,10.20
2023-04-11T13:43:43.430Z,8.80
2023-04-11T13:46:11.534Z,9.70
2023-04-11T13:48:40.412Z,7.90
2023-04-11T13:51:08.337Z,8.70
2023-04-11T13:53:36.268Z,12.20
2023-04-11T13:56:06.642Z,12.30
2023-04-11T13:58:35.275Z,8.90
2023-04-11T14:01:07.435Z,10.20
2023-04-11T14:03:37.912Z,12.10
2023-04-11T14:06:08.972Z,11.10
2023-04-11T14:08:37.155Z,9.20
2023-04-11T14:11:05.554Z,20.70
2023-04-11T14:13:35.310Z,9.60
2023-04-11T14:16:08.742Z,8.30
2023-04-11T14:18:37.197Z,10.50
2023-04-11T14:21:07.327Z,8.60
2023-04-11T14:23:35.910Z,11.10
2023-04-11T14:26:06.493Z,13.90
2023-04-11T14:28:35.339Z,9.80
2023-04-11T14:31:03.568Z,11.60
2023-04-11T14:33:32.457Z,8.30
2023-04-11T14:36:00.961Z,11.90
2023-04-11T14:38:29.627Z,12.90
2023-04-11T14:40:58.944Z,9.70
2023-04-11T14:43:27.239Z,9.90
2023-04-11T14:45:57.573Z,8.40
2023-04-11T14:48:27.536Z,8.50
2023-04-11T14:50:55.462Z,10.40
2023-04-11T14:53:23.444Z,8.80
2023-04-11T14:55:52.920Z,8.00
2023-04-11T14:58:26.645Z,12.00
2023-04-11T15:00:56.027Z,8.60
2023-04-11T15:03:25.547Z,14.50
2023-04-11T15:05:53.905Z,9.70
2023-04-11T15:08:22.469Z,10.10
2023-04-11T15:10:54.672Z,10.20
2023-04-11T15:13:34.326Z,10.20
2023-04-11T15:16:04.881Z,9.80
2023-04-11T15:18:33.157Z,8.00
2023-04-11T15:21:04.606Z,7.50
2023-04-11T15:23:33.500Z,10.60
2023-04-11T15:26:02.763Z,15.50
2023-04-11T15:28:37.057Z,9.30
2023-04-11T15:31:07.723Z,9.00
2023-04-11T15:33:36.784Z,12.00
2023-04-11T15:36:07.971Z,7.10
2023-04-11T15:38:36.838Z,17.10
2023-04-11T15:41:04.992Z,13.30
2023-04-11T15:43:35.826Z,11.10
2023-04-11T15:46:04.118Z,9.40
2023-04-11T15:48:33.225Z,12.60
2023-04-11T15:51:01.196Z,12.20
2023-04-11T15:53:29.431Z,15.60
2023-04-11T15:55:57.365Z,8.30
2023-04-11T15:58:27.245Z,9.70
2023-04-11T16:01:02.470Z,8.50
2023-04-11T16:03:32.841Z,9.40
2023-04-11T16:06:01.907Z,11.90
2023-04-11T16:08:30.118Z,16.10
2023-04-11T16:11:00.135Z,12.70
2023-04-11T16:13:28.284Z,10.00
2023-04-11T16:15:56.163Z,15.00
2023-04-11T16:18:25.792Z,6.40
2023-04-11T16:20:54.144Z,14.10
2023-04-11T16:23:22.760Z,8.40
2023-04-11T16:25:51.408Z,10.10
2023-04-11T16:28:19.302Z,9.20
2023-04-11T16:30:47.780Z,11.60
2023-04-11T16:33:16.357Z,8.60
2023-04-11T16:35:44.208Z,10.60
2023-04-11T16:38:12.355Z,14.40
2023-04-11T16:40:40.457Z,11.70
2023-04-11T16:43:13.436Z,8.70
2023-04-11T16:45:41.793Z,11.20
2023-04-11T16:48:09.707Z,16.70
2023-04-11T16:50:39.163Z,15.00
2023-04-11T16:53:07.069Z,9.70
2023-04-11T16:55:36.139Z,15.30
2023-04-11T16:58:05.376Z,12.90
2023-04-11T17:00:33.419Z,9.60
2023-04-11T17:03:03.060Z,11.30
2023-04-11T17:05:38.115Z,12.70
2023-04-11T17:08:07.065Z,13.50
2023-04-11T17:10:35.453Z,13.40
2023-04-11T17:13:03.495Z,13.50
2023-04-11T17:15:34.916Z,12.00
2023-04-11T17:18:04.265Z,15.10
2023-04-11T17:20:32.251Z,11.00
2023-04-11T17:23:00.698Z,14.60
2023-04-11T17:25:30.316Z,12.20
2023-04-11T17:28:00.443Z,11.60
2023-04-11T17:30:29.361Z,14.90
2023-04-11T17:32:57.723Z,15.70
2023-04-11T17:35:27.942Z,12.80
2023-04-11T17:37:55.982Z,14.80
2023-04-11T17:40:24.643Z,15.30
2023-04-11T17:42:53.250Z,14.70
2023-04-11T17:45:21.778Z,16.30
2023-04-11T17:47:53.031Z,10.60
2023-04-11T17:50:21.159Z,13.50
2023-04-11T17:52:49.021Z,13.80
2023-04-11T17:55:17.877Z,14.40
2023-04-11T17:57:49.882Z,16.00
2023-04-11T18:00:23.614Z,17.80
2023-04-11T18:02:54.783Z,12.30
2023-04-11T18:05:25.890Z,15.50
2023-04-11T18:07:58.453Z,15.10
2023-04-11T18:10:27.570Z,15.70
2023-04-11T18:12:56.943Z,10.50
2023-04-11T18:15:39.501Z,14.50
2023-04-11T18:18:10.562Z,14.10
2023-04-11T18:20:38.684Z,12.80
2023-04-11T18:23:06.954Z,17.10
2023-04-11T18:25:35.604Z,15.70
2023-04-11T18:28:03.681Z,14.30
2023-04-11T18:30:31.754Z,11.90
2023-04-11T18:33:02.287Z,11.60
2023-04-11T18:35:31.695Z,17.40
2023-04-11T18:38:00.298Z,12.30
2023-04-11T18:40:29.757Z,12.00
2023-04-11T18:43:00.150Z,10.70
2023-04-11T18:45:29.094Z,16.20
2023-04-11T18:47:57.697Z,11.20
2023-04-11T18:50:26.510Z,14.20
2023-04-11T18:52:56.673Z,20.20
2023-04-11T18:55:26.104Z,13.70
2023-04-11T18:57:57.567Z,14.00
2023-04-11T19:00:32.489Z,11.90
2023-04-11T19:03:01.816Z,16.40
2023-04-11T19:05:30.845Z,11.80
2023-04-11T19:07:59.663Z,14.50
2023-04-11T19:10:27.525Z,13.70
2023-04-11T19:12:56.412Z,14.30
2023-04-11T19:15:29.461Z,12.60
2023-04-11T19:17:59.851Z,16.80
2023-04-11T19:20:29.534Z,17.20
2023-04-11T19:23:02.714Z,13.30
2023-04-11T19:25:30.817Z,14.70
2023-04-11T19:27:59.170Z,17.50
2023-04-11T19:30:28.604Z,16.10
2023-04-11T19:32:58.910Z,18.20
2023-04-11T19:35:27.298Z,12.80
2023-04-11T19:37:56.380Z,14.70
2023-04-11T19:40:24.511Z,16.80
2023-04-11T19:42:52.504Z,14.90
2023-04-11T19:45:22.187Z,15.60
2023-04-11T19:47:51.268Z,15.40
2023-04-11T19:50:19.504Z,21.50
2023-04-11T19:52:48.043Z,17.10
2023-04-11T19:55:16.063Z,16.70
2023-04-11T19:57:44.416Z,13.70
2023-04-11T20:00:14.119Z,17.60
2023-04-11T20:02:48.748Z,12.60
2023-04-11T20:05:18.787Z,16.90
2023-04-11T20:07:46.982Z,17.90
2023-04-11T20:10:21.550Z,12.40
2023-04-11T20:12:52.340Z,17.30
2023-04-11T20:15:20.723Z,16.50
2023-04-11T20:17:49.402Z,13.10
2023-04-11T20:20:19.640Z,18.40
2023-04-11T20:22:50.992Z,16.20
2023-04-11T20:25:19.074Z,12.00
2023-04-11T20:27:47.065Z,14.30
2023-04-11T20:30:16.864Z,14.10
2023-04-11T20:32:46.020Z,9.60
2023-04-11T20:35:14.316Z,11.20
2023-04-11T20:37:43.764Z,16.10
2023-04-11T20:40:14.337Z,14.10
2023-04-11T20:42:45.964Z,12.90
2023-04-11T20:45:18.173Z,12.80
2023-04-11T20:47:49.686Z,12.30
2023-04-11T20:50:19.498Z,11.40
2023-04-11T20:52:50.524Z,18.50
2023-04-11T20:55:18.911Z,11.80
2023-04-11T20:57:47.147Z,11.60
2023-04-11T21:00:18.471Z,11.00
2023-04-11T21:02:50.516Z,12.20
2023-04-11T21:05:20.696Z,13.90
2023-04-11T21:07:54.431Z,13.00
2023-04-11T21:10:22.786Z,9.90
2023-04-11T21:12:54.328Z,14.70
2023-04-11T21:15:26.776Z,13.50
2023-04-11T21:17:54.811Z,17.30
2023-04-11T21:20:23.042Z,15.50
2023-04-11T21:22:55.782Z,16.20
2023-04-11T21:25:25.259Z,13.30
2023-04-11T21:27:53.346Z,15.80
2023-04-11T21:30:21.422Z,13.40
2023-04-11T21:32:50.008Z,10.80
2023-04-11T21:35:18.435Z,14.00
2023-04-11T21:37:48.964Z,9.70
2023-04-11T21:40:18.334Z,12.50
2023-04-11T21:42:47.567Z,8.80
2023-04-11T21:45:15.574Z,11.80
2023-04-11T21:47:44.780Z,13.20
2023-04-11T21:50:12.922Z,14.00
2023-04-11T21:52:45.400Z,11.60
2023-04-11T21:55:14.630Z,10.50
2023-04-11T21:57:42.730Z,12.10
2023-04-11T22:00:12.572Z,10.80
2023-04-11T22:02:42.984Z,9.70
2023-04-11T22:05:12.770Z,11.20
2023-04-11T22:07:48.657Z,11.70
2023-04-11T22:10:23.755Z,11.40
2023-04-11T22:12:54.591Z,9.90
2023-04-11T22:15:24.316Z,10.70
2023-04-11T22:17:54.553Z,10.60
2023-04-11T22:20:22.871Z,11.30
2023-04-11T22:22:50.884Z,10.10
2023-04-11T22:25:22.369Z,12.40
2023-04-11T22:27:54.571Z,10.80
2023-04-11T22:30:24.431Z,11.40
2023-04-11T22:33:02.923Z,11.50
2023-04-11T22:35:33.030Z,15.80
2023-04-11T22:38:01.283Z,10.30
2023-04-11T22:40:29.268Z,11.10
2023-04-11T22:42:57.272Z,10.70
2023-04-11T22:45:25.563Z,10.40
2023-04-11T22:47:55.694Z,13.40
2023-04-11T22:53:13.988Z,14.30
2023-04-11T22:55:42.076Z,9.90
2023-04-11T22:58:10.023Z,13.10
2023-04-11T23:00:39.766Z,13.40
2023-04-11T23:03:08.469Z,13.60
2023-04-11T23:05:41.319Z,14.30
2023-04-11T23:08:09.909Z,12.10
2023-04-11T23:10:38.375Z,9.10
2023-04-11T23:13:11.207Z,13.70
2023-04-11T23:15:41.421Z,8.50
2023-04-11T23:18:09.272Z,7.90
2023-04-11T23:20:42.117Z,10.80
2023-04-11T23:23:10.354Z,10.20
2023-04-11T23:25:40.245Z,11.90
2023-04-11T23:28:08.322Z,9.80
2023-04-11T23:33:35.508Z,16.30
2023-04-11T23:36:08.044Z,8.90
2023-04-11T23:38:37.265Z,11.70
2023-04-11T23:41:09.612Z,12.40
2023-04-11T23:43:37.547Z,8.40
2023-04-11T23:46:06.477Z,11.40
2023-04-11T23:48:35.000Z,10.30
2023-04-11T23:51:03.698Z,14.00
2023-04-11T23:53:31.806Z,12.30
2023-04-11T23:55:59.948Z,12.50
2023-04-11T23:58:27.901Z,12.90
